createdAt,value
2023-05-11T00:01:09.932Z,12.86
2023-05-11T00:03:36.527Z,12.88
2023-05-11T00:06:03.323Z,12.90
2023-05-11T00:08:29.934Z,12.89
2023-05-11T00:10:56.461Z,12.87
2023-05-11T00:13:23.072Z,12.86
2023-05-11T00:15:49.860Z,12.84
2023-05-11T00:18:16.529Z,12.82
2023-05-11T00:20:43.104Z,12.82
2023-05-11T00:23:09.901Z,12.79
2023-05-11T00:25:36.336Z,12.80
2023-05-11T00:28:02.860Z,12.79
2023-05-11T00:30:29.377Z,12.75
2023-05-11T00:32:55.938Z,12.71
2023-05-11T00:35:22.661Z,12.68
2023-05-11T00:37:49.117Z,12.66
2023-05-11T00:40:16.278Z,12.64
2023-05-11T00:42:43.111Z,12.62
2023-05-11T00:45:09.826Z,12.62
2023-05-11T00:47:36.350Z,12.62
2023-05-11T00:50:02.989Z,12.63
2023-05-11T00:52:30.038Z,12.66
2023-05-11T00:54:56.685Z,12.66
2023-05-11T00:57:23.192Z,12.68
2023-05-11T00:59:50.095Z,12.68
2023-05-11T01:02:17.636Z,12.70
2023-05-11T01:04:44.934Z,12.70
2023-05-11T01:07:32.528Z,12.69
2023-05-11T01:10:10.935Z,12.66
2023-05-11T01:12:58.817Z,12.61
2023-05-11T01:15:40.639Z,12.49
2023-05-11T01:18:18.325Z,12.44
2023-05-11T01:20:48.108Z,12.46
2023-05-11T01:23:23.359Z,12.49
2023-05-11T01:26:09.208Z,12.49
2023-05-11T01:29:13.818Z,12.50
2023-05-11T01:31:47.113Z,12.47
2023-05-11T01:34:18.123Z,12.47
2023-05-11T01:36:51.997Z,12.45
2023-05-11T01:39:25.040Z,12.46
2023-05-11T01:41:55.712Z,12.45
2023-05-11T01:44:29.471Z,12.40
2023-05-11T01:46:57.632Z,12.36
2023-05-11T01:49:24.906Z,12.35
2023-05-11T01:51:53.723Z,12.34
2023-05-11T01:54:21.600Z,12.32
2023-05-11T01:56:50.064Z,12.29
2023-05-11T01:59:19.035Z,12.32
2023-05-11T02:01:46.264Z,12.33
2023-05-11T02:04:14.900Z,12.32
2023-05-11T02:06:43.615Z,12.33
2023-05-11T02:09:12.698Z,12.34
2023-05-11T02:11:42.854Z,12.33
2023-05-11T02:14:11.046Z,12.33
2023-05-11T02:16:39.043Z,12.32
2023-05-11T02:19:08.296Z,12.29
2023-05-11T02:21:36.710Z,12.29
2023-05-11T02:24:06.388Z,12.29
2023-05-11T02:26:33.217Z,12.28
2023-05-11T02:29:00.174Z,12.25
2023-05-11T02:31:32.602Z,12.21
2023-05-11T02:34:09.846Z,12.23
2023-05-11T02:36:38.650Z,12.22
2023-05-11T02:39:09.793Z,12.22
2023-05-11T02:41:41.879Z,12.17
2023-05-11T02:44:11.442Z,12.15
2023-05-11T02:46:40.226Z,12.15
2023-05-11T02:49:11.102Z,12.13
2023-05-11T02:51:39.716Z,12.14
2023-05-11T02:54:11.038Z,12.16
2023-05-11T02:56:39.147Z,12.19
2023-05-11T02:59:06.409Z,12.19
2023-05-11T03:01:33.550Z,12.20
2023-05-11T03:04:00.242Z,12.17
2023-05-11T03:06:26.923Z,12.14
2023-05-11T03:08:53.458Z,12.11
2023-05-11T03:11:21.563Z,12.13
2023-05-11T03:13:48.450Z,12.14
2023-05-11T03:16:17.442Z,12.15
2023-05-11T03:18:45.616Z,12.16
2023-05-11T03:21:14.834Z,12.15
2023-05-11T03:23:41.850Z,12.13
2023-05-11T03:26:09.717Z,12.10
2023-05-11T03:28:37.823Z,12.12
2023-05-11T03:31:04.470Z,12.13
2023-05-11T03:33:31.821Z,12.10
2023-05-11T03:35:58.983Z,12.13
2023-05-11T03:38:29.460Z,12.14
2023-05-11T03:40:57.865Z,12.13
2023-05-11T03:43:27.501Z,12.14
2023-05-11T03:45:56.044Z,12.14
2023-05-11T03:48:23.359Z,12.14
2023-05-11T03:50:50.658Z,12.14
2023-05-11T03:53:17.572Z,12.15
2023-05-11T03:55:44.291Z,12.13
2023-05-11T03:58:11.697Z,12.08
2023-05-11T04:00:41.833Z,11.99
2023-05-11T04:03:09.764Z,11.95
2023-05-11T04:05:36.468Z,11.97
2023-05-11T04:08:04.819Z,11.96
2023-05-11T04:10:31.329Z,11.97
2023-05-11T04:12:58.126Z,12.00
2023-05-11T04:15:24.580Z,12.00
2023-05-11T04:17:51.019Z,12.01
2023-05-11T04:20:17.967Z,12.00
2023-05-11T04:22:44.745Z,11.99
2023-05-11T04:25:11.516Z,11.96
2023-05-11T04:27:37.979Z,11.92
2023-05-11T04:30:05.456Z,11.91
2023-05-11T04:32:32.302Z,11.90
2023-05-11T04:34:59.468Z,11.89
2023-05-11T04:37:26.332Z,11.92
2023-05-11T04:39:53.023Z,11.98
2023-05-11T04:42:19.531Z,12.00
2023-05-11T04:44:46.093Z,12.03
2023-05-11T04:47:12.592Z,12.06
2023-05-11T04:49:40.171Z,12.09
2023-05-11T04:52:06.645Z,12.11
2023-05-11T04:54:33.628Z,12.12
2023-05-11T04:57:00.151Z,12.14
2023-05-11T04:59:26.855Z,12.13
2023-05-11T05:01:53.593Z,12.15
2023-05-11T05:04:20.316Z,12.16
2023-05-11T05:06:46.806Z,12.19
2023-05-11T05:09:13.328Z,12.25
2023-05-11T05:11:39.835Z,12.28
2023-05-11T05:14:06.333Z,12.30
2023-05-11T05:16:33.216Z,12.36
2023-05-11T05:19:00.051Z,12.38
2023-05-11T05:21:26.665Z,12.43
2023-05-11T05:23:53.208Z,12.48
2023-05-11T05:26:19.696Z,12.50
2023-05-11T05:28:46.188Z,12.55
2023-05-11T05:31:12.830Z,12.61
2023-05-11T05:33:39.554Z,12.66
2023-05-11T05:36:06.201Z,12.72
2023-05-11T05:38:32.774Z,12.73
2023-05-11T05:41:00.058Z,12.75
2023-05-11T05:43:26.699Z,12.78
2023-05-11T05:45:53.476Z,12.78
2023-05-11T05:48:20.116Z,12.79
2023-05-11T05:50:47.074Z,12.78
2023-05-11T05:53:13.818Z,12.81
2023-05-11T05:55:40.460Z,12.87
2023-05-11T05:58:06.961Z,12.93
2023-05-11T06:00:34.392Z,12.96
2023-05-11T06:03:01.005Z,13.01
2023-05-11T06:05:27.689Z,13.04
2023-05-11T06:08:08.429Z,13.13
2023-05-11T06:10:36.285Z,13.18
2023-05-11T06:13:02.872Z,13.19
2023-05-11T06:15:29.501Z,13.22
2023-05-11T06:17:56.362Z,13.25
2023-05-11T06:20:24.337Z,13.31
2023-05-11T06:22:53.056Z,13.40
2023-05-11T06:25:20.120Z,13.46
2023-05-11T06:27:46.604Z,13.52
2023-05-11T06:30:13.724Z,13.51
2023-05-11T06:32:40.258Z,13.45
2023-05-11T06:35:07.578Z,13.48
2023-05-11T06:37:35.495Z,13.50
2023-05-11T06:40:02.357Z,13.61
2023-05-11T06:42:28.860Z,13.67
2023-05-11T06:44:55.604Z,13.77
2023-05-11T06:47:22.205Z,13.86
2023-05-11T06:49:48.992Z,13.93
2023-05-11T06:52:17.988Z,14.09
2023-05-11T06:54:44.573Z,14.19
2023-05-11T06:57:12.742Z,14.27
2023-05-11T06:59:41.038Z,14.39
2023-05-11T07:02:07.606Z,14.47
2023-05-11T07:04:34.053Z,14.44
2023-05-11T07:07:00.591Z,14.52
2023-05-11T07:09:27.063Z,14.60
2023-05-11T07:11:53.709Z,14.82
2023-05-11T07:14:20.146Z,15.09
2023-05-11T07:16:46.747Z,15.38
2023-05-11T07:19:13.872Z,15.61
2023-05-11T07:21:40.538Z,15.69
2023-05-11T07:24:07.084Z,15.67
2023-05-11T07:26:33.659Z,15.65
2023-05-11T07:29:00.119Z,15.69
2023-05-11T07:31:26.724Z,15.69
2023-05-11T07:33:53.529Z,15.69
2023-05-11T07:36:20.063Z,15.76
2023-05-11T07:38:46.610Z,15.92
2023-05-11T07:41:13.135Z,16.57
2023-05-11T07:43:40.122Z,17.71
2023-05-11T07:46:07.433Z,19.32
2023-05-11T07:48:33.890Z,20.57
2023-05-11T07:51:01.548Z,21.36
2023-05-11T07:53:28.018Z,21.07
2023-05-11T07:55:54.466Z,20.02
2023-05-11T07:58:21.080Z,19.31
2023-05-11T08:00:47.480Z,19.01
2023-05-11T08:03:14.594Z,18.74
2023-05-11T08:05:41.276Z,18.58
2023-05-11T08:08:07.931Z,18.42
2023-05-11T08:10:36.243Z,18.35
2023-05-11T08:13:02.728Z,18.34
2023-05-11T08:15:29.477Z,18.24
2023-05-11T08:17:56.225Z,18.01
2023-05-11T08:20:23.134Z,17.81
2023-05-11T08:22:50.856Z,17.50
2023-05-11T08:25:18.016Z,17.42
2023-05-11T08:27:44.712Z,17.74
2023-05-11T08:30:12.141Z,17.85
2023-05-11T08:32:54.615Z,17.84
2023-05-11T08:35:24.843Z,17.85
2023-05-11T08:37:51.427Z,18.17
2023-05-11T08:40:20.376Z,18.37
2023-05-11T08:42:48.981Z,18.37
2023-05-11T08:45:15.943Z,18.45
2023-05-11T08:47:42.765Z,18.52
2023-05-11T08:50:09.445Z,18.68
2023-05-11T08:52:35.860Z,18.82
2023-05-11T08:55:02.336Z,18.83
2023-05-11T08:57:32.263Z,18.76
2023-05-11T09:00:01.701Z,18.98
2023-05-11T09:02:28.792Z,19.01
2023-05-11T09:04:56.204Z,19.06
2023-05-11T09:07:24.770Z,19.24
2023-05-11T09:09:51.216Z,19.29
2023-05-11T09:12:17.974Z,19.11
2023-05-11T09:14:44.856Z,19.21
2023-05-11T09:17:11.474Z,19.47
2023-05-11T09:19:56.958Z,19.83
2023-05-11T09:22:23.454Z,20.47
2023-05-11T09:24:50.252Z,21.35
2023-05-11T09:27:21.146Z,22.25
2023-05-11T09:29:51.988Z,22.92
2023-05-11T09:32:18.656Z,23.17
2023-05-11T09:34:45.122Z,23.68
2023-05-11T09:37:17.530Z,23.99
2023-05-11T09:42:21.646Z,24.29
2023-05-11T09:44:48.689Z,24.05
2023-05-11T09:47:18.123Z,23.39
2023-05-11T09:49:45.742Z,23.28
2023-05-11T09:52:17.148Z,23.33
2023-05-11T09:54:49.957Z,23.19
2023-05-11T09:57:24.857Z,23.13
2023-05-11T09:59:52.447Z,23.04
2023-05-11T10:02:21.597Z,22.92
2023-05-11T10:04:49.905Z,22.79
2023-05-11T10:07:34.425Z,22.61
2023-05-11T10:10:02.930Z,22.53
2023-05-11T10:12:31.126Z,22.27
2023-05-11T10:15:10.713Z,21.50
2023-05-11T10:17:37.907Z,21.38
2023-05-11T10:20:06.559Z,21.17
2023-05-11T10:22:33.678Z,20.77
2023-05-11T10:25:00.785Z,20.51
2023-05-11T10:27:27.931Z,20.19
2023-05-11T10:29:54.784Z,19.95
2023-05-11T10:32:21.632Z,19.70
2023-05-11T10:34:48.511Z,19.26
2023-05-11T10:37:17.051Z,18.92
2023-05-11T10:39:47.754Z,18.43
2023-05-11T10:42:21.618Z,18.16
2023-05-11T10:44:56.112Z,17.79
2023-05-11T10:47:28.741Z,17.45
2023-05-11T10:50:07.782Z,17.25
2023-05-11T10:52:55.892Z,16.88
2023-05-11T10:55:35.287Z,16.29
2023-05-11T10:58:12.844Z,15.53
2023-05-11T11:01:18.894Z,14.91
2023-05-11T11:03:59.588Z,14.52
2023-05-11T11:06:26.142Z,14.36
2023-05-11T11:09:00.155Z,14.25
2023-05-11T11:11:39.919Z,14.07
2023-05-11T11:14:11.441Z,13.97
2023-05-11T11:16:39.097Z,13.92
2023-05-11T11:19:30.784Z,13.97
2023-05-11T11:22:01.382Z,14.05
2023-05-11T11:24:37.410Z,14.16
2023-05-11T11:27:11.124Z,14.20
2023-05-11T11:29:42.591Z,14.27
2023-05-11T11:32:24.436Z,14.34
2023-05-11T11:34:51.514Z,14.38
2023-05-11T11:37:18.894Z,14.42
2023-05-11T11:39:49.878Z,14.48
2023-05-11T11:42:32.421Z,14.56
2023-05-11T11:45:27.946Z,14.64
2023-05-11T11:48:36.324Z,14.69
2023-05-11T11:51:06.177Z,14.74
2023-05-11T11:53:41.996Z,14.75
2023-05-11T11:56:28.695Z,14.82
2023-05-11T11:59:00.443Z,14.85
2023-05-11T12:01:29.711Z,14.88
2023-05-11T12:04:05.743Z,14.87
2023-05-11T12:06:41.109Z,14.88
2023-05-11T12:09:08.394Z,14.89
2023-05-11T12:11:35.189Z,14.87
2023-05-11T12:14:02.515Z,14.88
2023-05-11T12:16:29.589Z,14.89
2023-05-11T12:19:01.135Z,14.95
2023-05-11T12:21:33.125Z,14.95
2023-05-11T12:24:09.111Z,14.98
2023-05-11T12:26:35.841Z,15.03
2023-05-11T12:29:09.765Z,15.02
2023-05-11T12:31:37.449Z,15.04
2023-05-11T12:34:04.122Z,15.01
2023-05-11T12:36:31.829Z,15.05
2023-05-11T12:38:59.270Z,15.12
2023-05-11T12:41:26.008Z,15.19
2023-05-11T12:43:54.115Z,15.25
2023-05-11T12:46:21.826Z,15.29
2023-05-11T12:48:49.635Z,15.28
2023-05-11T12:51:46.884Z,15.35
2023-05-11T12:54:27.656Z,15.38
2023-05-11T12:56:54.195Z,15.47
2023-05-11T12:59:44.070Z,15.53
2023-05-11T13:02:14.986Z,15.57
2023-05-11T13:04:42.571Z,15.64
2023-05-11T13:07:10.024Z,15.64
2023-05-11T13:09:37.232Z,15.68
2023-05-11T13:12:17.620Z,15.66
2023-05-11T13:14:49.730Z,15.67
2023-05-11T13:17:33.676Z,15.65
2023-05-11T13:20:26.108Z,15.68
2023-05-11T13:23:13.393Z,15.60
2023-05-11T13:25:49.043Z,15.56
2023-05-11T13:28:17.380Z,15.53
2023-05-11T13:30:44.881Z,15.49
2023-05-11T13:33:11.636Z,15.51
2023-05-11T13:35:39.163Z,15.41
2023-05-11T13:38:05.851Z,15.19
2023-05-11T13:40:32.635Z,15.02
2023-05-11T13:43:01.955Z,14.92
2023-05-11T13:45:28.819Z,14.82
2023-05-11T13:47:56.778Z,14.88
2023-05-11T13:50:24.547Z,15.01
2023-05-11T13:52:51.786Z,15.10
2023-05-11T13:55:18.647Z,15.18
2023-05-11T13:57:45.805Z,15.23
2023-05-11T14:00:13.022Z,15.27
2023-05-11T14:02:39.574Z,15.26
2023-05-11T14:05:06.991Z,15.31
2023-05-11T14:07:45.739Z,15.38
2023-05-11T14:10:13.956Z,15.44
2023-05-11T14:12:41.059Z,15.49
2023-05-11T14:15:08.191Z,15.53
2023-05-11T14:17:35.914Z,15.61
2023-05-11T14:20:02.863Z,15.71
2023-05-11T14:22:29.498Z,15.79
2023-05-11T14:24:56.305Z,15.86
2023-05-11T14:27:23.233Z,15.96
2023-05-11T14:29:52.030Z,16.04
2023-05-11T14:32:21.625Z,16.10
2023-05-11T14:34:48.728Z,16.16
2023-05-11T14:37:15.438Z,16.26
2023-05-11T14:39:41.810Z,16.35
2023-05-11T14:42:08.845Z,16.44
2023-05-11T14:44:35.382Z,16.58
2023-05-11T14:47:01.920Z,16.66
2023-05-11T14:49:28.790Z,16.74
2023-05-11T14:51:55.437Z,16.80
2023-05-11T14:54:22.025Z,16.87
2023-05-11T14:56:53.956Z,16.90
2023-05-11T14:59:21.460Z,16.99
2023-05-11T15:01:49.636Z,16.95
2023-05-11T15:04:17.032Z,16.98
2023-05-11T15:06:43.914Z,16.98
2023-05-11T15:09:10.636Z,17.09
2023-05-11T15:11:40.017Z,17.27
2023-05-11T15:14:09.622Z,17.44
2023-05-11T15:16:37.444Z,17.53
2023-05-11T15:19:05.868Z,17.57
2023-05-11T15:21:32.572Z,17.62
2023-05-11T15:23:59.207Z,17.71
2023-05-11T15:26:26.077Z,17.76
2023-05-11T15:28:52.695Z,17.80
2023-05-11T15:31:19.328Z,17.82
2023-05-11T15:33:46.026Z,17.85
2023-05-11T15:36:14.227Z,17.87
2023-05-11T15:38:43.259Z,17.91
2023-05-11T15:41:09.800Z,17.99
2023-05-11T15:43:36.357Z,18.10
2023-05-11T15:46:04.015Z,18.03
2023-05-11T15:48:30.603Z,18.06
2023-05-11T15:50:59.778Z,18.09
2023-05-11T15:53:26.771Z,18.04
2023-05-11T15:55:55.370Z,17.98
2023-05-11T15:58:22.139Z,17.92
2023-05-11T16:00:49.207Z,17.89
2023-05-11T16:03:15.981Z,17.80
2023-05-11T16:05:42.525Z,17.81
2023-05-11T16:08:09.011Z,17.83
2023-05-11T16:10:35.530Z,17.79
2023-05-11T16:13:09.556Z,17.80
2023-05-11T16:15:36.269Z,17.83
2023-05-11T16:18:04.894Z,17.83
2023-05-11T16:20:32.352Z,17.88
2023-05-11T16:23:01.812Z,17.91
2023-05-11T16:25:28.276Z,17.95
2023-05-11T16:27:54.732Z,17.96
2023-05-11T16:30:25.365Z,17.97
2023-05-11T16:32:53.263Z,17.94
2023-05-11T16:35:20.301Z,17.89
2023-05-11T16:37:48.235Z,17.85
2023-05-11T16:40:14.942Z,17.81
2023-05-11T16:42:50.262Z,17.71
2023-05-11T16:45:17.020Z,17.61
2023-05-11T16:47:46.707Z,17.52
2023-05-11T16:50:14.708Z,17.41
2023-05-11T16:52:42.415Z,17.23
2023-05-11T16:55:09.525Z,17.07
2023-05-11T16:57:36.061Z,16.95
2023-05-11T17:00:03.053Z,16.86
2023-05-11T17:02:29.835Z,16.81
2023-05-11T17:04:56.611Z,16.81
2023-05-11T17:07:23.059Z,16.63
2023-05-11T17:09:52.262Z,16.58
2023-05-11T17:12:18.664Z,16.51
2023-05-11T17:14:45.068Z,16.31
2023-05-11T17:17:11.612Z,16.17
2023-05-11T17:19:38.429Z,16.00
2023-05-11T17:22:05.159Z,15.69
2023-05-11T17:24:31.677Z,15.54
2023-05-11T17:27:01.169Z,15.36
2023-05-11T17:29:27.653Z,15.24
2023-05-11T17:31:54.381Z,15.17
2023-05-11T17:34:23.653Z,15.05
2023-05-11T17:36:52.366Z,14.97
2023-05-11T17:39:19.956Z,14.98
2023-05-11T17:41:47.347Z,14.98
2023-05-11T17:44:13.792Z,14.91
2023-05-11T17:46:40.454Z,14.92
2023-05-11T17:49:07.999Z,14.88
2023-05-11T17:51:34.585Z,14.81
2023-05-11T17:54:01.227Z,14.83
2023-05-11T17:56:27.643Z,14.87
2023-05-11T17:58:54.801Z,14.94
2023-05-11T18:01:22.672Z,15.02
2023-05-11T18:03:49.574Z,15.09
2023-05-11T18:06:16.653Z,15.09
2023-05-11T18:08:43.990Z,15.04
2023-05-11T18:11:12.701Z,15.05
2023-05-11T18:13:45.749Z,15.04
2023-05-11T18:16:12.329Z,15.06
2023-05-11T18:18:38.890Z,15.07
2023-05-11T18:21:06.668Z,15.03
2023-05-11T18:23:33.849Z,15.03
2023-05-11T18:26:00.508Z,14.96
2023-05-11T18:28:32.427Z,14.91
2023-05-11T18:30:58.975Z,14.89
2023-05-11T18:33:25.466Z,14.82
2023-05-11T18:35:52.175Z,14.76
2023-05-11T18:38:18.610Z,14.71
2023-05-11T18:40:45.428Z,14.70
2023-05-11T18:43:12.488Z,14.74
2023-05-11T18:45:40.965Z,14.76
2023-05-11T18:48:07.570Z,14.76
2023-05-11T18:50:34.196Z,14.74
2023-05-11T18:53:02.089Z,14.74
2023-05-11T18:55:30.804Z,14.69
2023-05-11T18:57:58.060Z,14.67
2023-05-11T19:00:24.814Z,14.64
2023-05-11T19:02:52.054Z,14.62
2023-05-11T19:05:18.755Z,14.58
2023-05-11T19:07:45.324Z,14.51
2023-05-11T19:10:11.872Z,14.48
2023-05-11T19:12:38.512Z,14.44
2023-05-11T19:15:06.282Z,14.41
2023-05-11T19:17:33.662Z,14.34
2023-05-11T19:20:00.203Z,14.34
2023-05-11T19:22:26.651Z,14.31
2023-05-11T19:24:53.038Z,14.27
2023-05-11T19:27:19.518Z,14.23
2023-05-11T19:29:49.117Z,14.24
2023-05-11T19:32:15.639Z,14.21
2023-05-11T19:34:42.050Z,14.17
2023-05-11T19:37:09.510Z,14.13
2023-05-11T19:39:36.269Z,14.10
2023-05-11T19:42:02.810Z,14.10
2023-05-11T19:44:33.086Z,14.04
2023-05-11T19:46:59.796Z,14.04
2023-05-11T19:49:26.303Z,14.06
2023-05-11T19:51:53.122Z,14.07
2023-05-11T19:54:19.545Z,14.06
2023-05-11T19:56:46.752Z,14.03
2023-05-11T19:59:13.346Z,14.03
2023-05-11T20:01:39.840Z,14.03
2023-05-11T20:04:06.236Z,14.02
2023-05-11T20:06:33.419Z,13.96
2023-05-11T20:09:00.047Z,13.94
2023-05-11T20:11:26.752Z,13.92
2023-05-11T20:13:53.818Z,13.90
2023-05-11T20:16:20.406Z,13.88
2023-05-11T20:18:47.277Z,13.83
2023-05-11T20:21:13.868Z,13.74
2023-05-11T20:23:40.378Z,13.65
2023-05-11T20:26:06.940Z,13.60
2023-05-11T20:28:33.461Z,13.54
2023-05-11T20:31:00.120Z,13.42
2023-05-11T20:35:56.207Z,13.27
2023-05-11T20:38:22.610Z,13.17
2023-05-11T20:40:49.068Z,13.06
2023-05-11T20:43:16.417Z,12.99
2023-05-11T20:45:44.671Z,12.91
2023-05-11T20:48:11.207Z,12.87
2023-05-11T20:50:39.249Z,12.85
2023-05-11T20:53:06.112Z,12.87
2023-05-11T20:55:32.541Z,12.92
2023-05-11T20:57:59.170Z,12.98
2023-05-11T21:00:25.818Z,13.05
2023-05-11T21:02:52.710Z,13.07
2023-05-11T21:05:19.360Z,13.11
2023-05-11T21:07:46.002Z,13.12
2023-05-11T21:10:14.115Z,13.10
2023-05-11T21:12:40.774Z,13.06
2023-05-11T21:15:07.733Z,13.05
2023-05-11T21:17:34.453Z,13.03
2023-05-11T21:20:02.359Z,12.97
2023-05-11T21:22:28.979Z,12.96
2023-05-11T21:24:55.393Z,12.95
2023-05-11T21:27:21.820Z,12.95
2023-05-11T21:29:48.520Z,12.96
2023-05-11T21:32:15.077Z,12.91
2023-05-11T21:34:44.863Z,12.89
2023-05-11T21:37:14.487Z,12.86
2023-05-11T21:39:41.536Z,12.82
2023-05-11T21:42:07.947Z,12.78
2023-05-11T21:44:34.423Z,12.74
2023-05-11T21:47:00.887Z,12.74
2023-05-11T21:49:27.398Z,12.76
2023-05-11T21:51:53.860Z,12.79
2023-05-11T21:54:22.522Z,12.79
2023-05-11T21:56:49.926Z,12.79
2023-05-11T21:59:17.117Z,12.84
2023-05-11T22:01:43.581Z,12.89
2023-05-11T22:04:10.925Z,12.90
2023-05-11T22:06:37.836Z,12.91
2023-05-11T22:09:04.756Z,12.90
2023-05-11T22:11:31.857Z,12.90
2023-05-11T22:13:58.320Z,12.86
2023-05-11T22:16:24.798Z,12.85
2023-05-11T22:18:51.388Z,12.81
2023-05-11T22:21:17.823Z,12.78
2023-05-11T22:23:44.290Z,12.78
2023-05-11T22:26:10.784Z,12.78
2023-05-11T22:28:37.437Z,12.75
2023-05-11T22:31:03.799Z,12.73
2023-05-11T22:33:30.522Z,12.73
2023-05-11T22:35:56.918Z,12.72
2023-05-11T22:38:23.549Z,12.74
2023-05-11T22:40:50.221Z,12.74
2023-05-11T22:43:17.139Z,12.75
2023-05-11T22:45:43.758Z,12.77
2023-05-11T22:48:10.287Z,12.80
2023-05-11T22:50:36.697Z,12.83
2023-05-11T22:53:03.174Z,12.85
2023-05-11T22:55:29.793Z,12.86
2023-05-11T22:57:56.286Z,12.84
2023-05-11T23:00:22.997Z,12.84
2023-05-11T23:02:49.703Z,12.87
2023-05-11T23:05:17.067Z,12.83
2023-05-11T23:07:43.464Z,12.82
2023-05-11T23:10:10.225Z,12.77
2023-05-11T23:12:36.685Z,12.70
2023-05-11T23:15:03.791Z,12.66
2023-05-11T23:17:30.621Z,12.64
2023-05-11T23:19:57.209Z,12.61
2023-05-11T23:22:24.546Z,12.58
2023-05-11T23:24:51.245Z,12.55
2023-05-11T23:27:26.042Z,12.52
2023-05-11T23:29:52.490Z,12.47
2023-05-11T23:32:18.889Z,12.39
2023-05-11T23:34:45.605Z,12.38
2023-05-11T23:37:12.065Z,12.35
2023-05-11T23:39:39.492Z,12.31
2023-05-11T23:42:06.508Z,12.28
2023-05-11T23:44:35.247Z,12.26
2023-05-11T23:47:02.165Z,12.27
2023-05-11T23:49:28.625Z,12.35
2023-05-11T23:51:55.505Z,12.40
2023-05-11T23:54:22.084Z,12.35
2023-05-11T23:56:48.720Z,12.35
2023-05-11T23:59:15.436Z,12.36
